sensor_id;sensor_type;location;lat;lon;timestamp;P1;durP1;ratioP1;P2;durP2;ratioP2
7773;SDS011;3931;42.260;23.116;2022-10-16T00:01:20;9.80;;;5.00;;
7773;SDS011;3931;42.260;23.116;2022-10-16T00:03:47;7.30;;;5.07;;
7773;SDS011;3931;42.260;23.116;2022-10-16T00:06:14;8.47;;;4.70;;
7773;SDS011;3931;42.260;23.116;2022-10-16T00:08:41;13.10;;;4.87;;
7773;SDS011;3931;42.260;23.116;2022-10-16T00:11:08;7.70;;;4.60;;
7773;SDS011;3931;42.260;23.116;2022-10-16T00:13:35;7.37;;;4.73;;
7773;SDS011;3931;42.260;23.116;2022-10-16T00:16:04;6.27;;;4.13;;
7773;SDS011;3931;42.260;23.116;2022-10-16T00:18:31;10.23;;;5.20;;
7773;SDS011;3931;42.260;23.116;2022-10-16T00:21:01;14.33;;;5.83;;
7773;SDS011;3931;42.260;23.116;2022-10-16T00:23:28;11.10;;;5.30;;
7773;SDS011;3931;42.260;23.116;2022-10-16T00:25:55;11.20;;;4.90;;
7773;SDS011;3931;42.260;23.116;2022-10-16T00:28:22;8.87;;;4.90;;
7773;SDS011;3931;42.260;23.116;2022-10-16T00:30:48;8.60;;;5.30;;
7773;SDS011;3931;42.260;23.116;2022-10-16T00:33:15;5.97;;;4.60;;
7773;SDS011;3931;42.260;23.116;2022-10-16T00:35:41;6.70;;;4.60;;
7773;SDS011;3931;42.260;23.116;2022-10-16T00:38:07;6.37;;;4.20;;
7773;SDS011;3931;42.260;23.116;2022-10-16T00:40:33;15.13;;;5.70;;
7773;SDS011;3931;42.260;23.116;2022-10-16T00:42:59;7.80;;;5.00;;
7773;SDS011;3931;42.260;23.116;2022-10-16T00:45:25;8.13;;;4.90;;
7773;SDS011;3931;42.260;23.116;2022-10-16T00:47:52;17.50;;;5.53;;
7773;SDS011;3931;42.260;23.116;2022-10-16T00:50:22;7.17;;;4.97;;
7773;SDS011;3931;42.260;23.116;2022-10-16T00:52:52;6.40;;;4.70;;
7773;SDS011;3931;42.260;23.116;2022-10-16T00:55:19;11.67;;;4.80;;
7773;SDS011;3931;42.260;23.116;2022-10-16T00:57:46;7.83;;;4.80;;
7773;SDS011;3931;42.260;23.116;2022-10-16T01:00:14;6.67;;;4.20;;
7773;SDS011;3931;42.260;23.116;2022-10-16T01:02:42;11.67;;;5.07;;
7773;SDS011;3931;42.260;23.116;2022-10-16T01:05:09;9.20;;;4.63;;
7773;SDS011;3931;42.260;23.116;2022-10-16T01:07:39;7.53;;;4.90;;
7773;SDS011;3931;42.260;23.116;2022-10-16T01:10:14;7.37;;;4.50;;
7773;SDS011;3931;42.260;23.116;2022-10-16T01:12:49;6.07;;;4.47;;
7773;SDS011;3931;42.260;23.116;2022-10-16T01:15:18;7.13;;;4.63;;
7773;SDS011;3931;42.260;23.116;2022-10-16T01:17:53;8.23;;;4.90;;
7773;SDS011;3931;42.260;23.116;2022-10-16T01:20:25;8.53;;;4.97;;
7773;SDS011;3931;42.260;23.116;2022-10-16T01:26:00;8.50;;;4.40;;
7773;SDS011;3931;42.260;23.116;2022-10-16T01:28:52;7.47;;;4.80;;
7773;SDS011;3931;42.260;23.116;2022-10-16T01:31:24;10.77;;;4.90;;
7773;SDS011;3931;42.260;23.116;2022-10-16T01:33:56;9.20;;;5.40;;
7773;SDS011;3931;42.260;23.116;2022-10-16T01:36:26;5.60;;;4.70;;
7773;SDS011;3931;42.260;23.116;2022-10-16T01:38:57;6.10;;;4.87;;
7773;SDS011;3931;42.260;23.116;2022-10-16T01:41:27;6.13;;;4.67;;
7773;SDS011;3931;42.260;23.116;2022-10-16T01:44:00;6.30;;;4.87;;
7773;SDS011;3931;42.260;23.116;2022-10-16T01:46:30;8.27;;;5.20;;
7773;SDS011;3931;42.260;23.116;2022-10-16T01:48:59;8.03;;;4.80;;
7773;SDS011;3931;42.260;23.116;2022-10-16T01:51:27;6.13;;;4.90;;
7773;SDS011;3931;42.260;23.116;2022-10-16T01:53:55;10.27;;;4.37;;
7773;SDS011;3931;42.260;23.116;2022-10-16T01:56:24;7.50;;;4.50;;
7773;SDS011;3931;42.260;23.116;2022-10-16T01:58:53;6.50;;;4.90;;
7773;SDS011;3931;42.260;23.116;2022-10-16T02:01:22;8.70;;;5.03;;
7773;SDS011;3931;42.260;23.116;2022-10-16T02:03:51;8.27;;;4.43;;
7773;SDS011;3931;42.260;23.116;2022-10-16T02:06:19;5.93;;;4.60;;
7773;SDS011;3931;42.260;23.116;2022-10-16T02:08:46;8.37;;;4.83;;
7773;SDS011;3931;42.260;23.116;2022-10-16T02:11:13;6.17;;;4.50;;
7773;SDS011;3931;42.260;23.116;2022-10-16T02:13:39;7.83;;;4.50;;
7773;SDS011;3931;42.260;23.116;2022-10-16T02:16:10;6.87;;;4.20;;
7773;SDS011;3931;42.260;23.116;2022-10-16T02:18:37;6.53;;;4.03;;
7773;SDS011;3931;42.260;23.116;2022-10-16T02:21:05;9.03;;;4.17;;
7773;SDS011;3931;42.260;23.116;2022-10-16T02:23:41;7.60;;;4.37;;
7773;SDS011;3931;42.260;23.116;2022-10-16T02:26:15;6.60;;;4.50;;
7773;SDS011;3931;42.260;23.116;2022-10-16T02:28:51;9.53;;;4.70;;
7773;SDS011;3931;42.260;23.116;2022-10-16T02:31:22;5.90;;;4.13;;
7773;SDS011;3931;42.260;23.116;2022-10-16T02:33:53;9.10;;;3.80;;
7773;SDS011;3931;42.260;23.116;2022-10-16T02:36:23;8.10;;;3.83;;
7773;SDS011;3931;42.260;23.116;2022-10-16T02:38:51;10.90;;;5.00;;
7773;SDS011;3931;42.260;23.116;2022-10-16T02:41:18;8.53;;;4.37;;
7773;SDS011;3931;42.260;23.116;2022-10-16T02:43:46;10.53;;;4.90;;
7773;SDS011;3931;42.260;23.116;2022-10-16T02:46:12;14.60;;;4.13;;
7773;SDS011;3931;42.260;23.116;2022-10-16T02:48:38;6.97;;;4.30;;
7773;SDS011;3931;42.260;23.116;2022-10-16T02:51:05;5.97;;;3.90;;
7773;SDS011;3931;42.260;23.116;2022-10-16T02:53:32;5.57;;;4.10;;
7773;SDS011;3931;42.260;23.116;2022-10-16T02:55:58;7.83;;;4.43;;
7773;SDS011;3931;42.260;23.116;2022-10-16T02:58:24;8.60;;;4.63;;
7773;SDS011;3931;42.260;23.116;2022-10-16T03:00:50;5.83;;;4.47;;
7773;SDS011;3931;42.260;23.116;2022-10-16T03:03:16;6.23;;;5.03;;
7773;SDS011;3931;42.260;23.116;2022-10-16T03:05:42;7.60;;;4.70;;
7773;SDS011;3931;42.260;23.116;2022-10-16T03:08:11;7.97;;;4.67;;
7773;SDS011;3931;42.260;23.116;2022-10-16T03:10:37;8.47;;;4.67;;
7773;SDS011;3931;42.260;23.116;2022-10-16T03:13:03;8.87;;;5.70;;
7773;SDS011;3931;42.260;23.116;2022-10-16T03:15:30;10.60;;;5.80;;
7773;SDS011;3931;42.260;23.116;2022-10-16T03:17:57;7.97;;;5.80;;
7773;SDS011;3931;42.260;23.116;2022-10-16T03:20:23;9.20;;;5.57;;
7773;SDS011;3931;42.260;23.116;2022-10-16T03:22:49;9.50;;;5.90;;
7773;SDS011;3931;42.260;23.116;2022-10-16T03:25:16;9.43;;;5.80;;
7773;SDS011;3931;42.260;23.116;2022-10-16T03:27:42;14.40;;;6.60;;
7773;SDS011;3931;42.260;23.116;2022-10-16T03:30:09;9.47;;;5.77;;
7773;SDS011;3931;42.260;23.116;2022-10-16T03:32:35;7.77;;;5.40;;
7773;SDS011;3931;42.260;23.116;2022-10-16T03:35:02;9.23;;;5.67;;
7773;SDS011;3931;42.260;23.116;2022-10-16T03:37:28;10.10;;;4.83;;
7773;SDS011;3931;42.260;23.116;2022-10-16T03:39:54;8.50;;;4.60;;
7773;SDS011;3931;42.260;23.116;2022-10-16T03:42:21;7.47;;;5.07;;
7773;SDS011;3931;42.260;23.116;2022-10-16T03:44:47;10.37;;;6.00;;
7773;SDS011;3931;42.260;23.116;2022-10-16T03:47:13;8.60;;;5.40;;
7773;SDS011;3931;42.260;23.116;2022-10-16T03:49:39;11.50;;;5.27;;
7773;SDS011;3931;42.260;23.116;2022-10-16T03:52:05;10.77;;;6.07;;
7773;SDS011;3931;42.260;23.116;2022-10-16T03:54:31;11.63;;;5.27;;
7773;SDS011;3931;42.260;23.116;2022-10-16T03:56:57;7.90;;;4.83;;
7773;SDS011;3931;42.260;23.116;2022-10-16T03:59:24;8.70;;;5.70;;
7773;SDS011;3931;42.260;23.116;2022-10-16T04:01:50;7.90;;;5.20;;
7773;SDS011;3931;42.260;23.116;2022-10-16T04:04:16;8.07;;;5.63;;
7773;SDS011;3931;42.260;23.116;2022-10-16T04:06:43;6.97;;;4.87;;
7773;SDS011;3931;42.260;23.116;2022-10-16T04:09:09;9.60;;;6.30;;
7773;SDS011;3931;42.260;23.116;2022-10-16T04:11:35;9.60;;;6.30;;
7773;SDS011;3931;42.260;23.116;2022-10-16T04:14:01;11.03;;;6.20;;
7773;SDS011;3931;42.260;23.116;2022-10-16T04:16:28;10.47;;;5.50;;
7773;SDS011;3931;42.260;23.116;2022-10-16T04:18:54;11.10;;;6.07;;
7773;SDS011;3931;42.260;23.116;2022-10-16T04:21:20;9.87;;;6.30;;
7773;SDS011;3931;42.260;23.116;2022-10-16T04:23:47;10.53;;;7.00;;
7773;SDS011;3931;42.260;23.116;2022-10-16T04:26:14;11.47;;;6.30;;
7773;SDS011;3931;42.260;23.116;2022-10-16T04:28:40;13.00;;;6.73;;
7773;SDS011;3931;42.260;23.116;2022-10-16T04:31:06;9.53;;;6.53;;
7773;SDS011;3931;42.260;23.116;2022-10-16T04:33:33;11.30;;;6.63;;
7773;SDS011;3931;42.260;23.116;2022-10-16T04:36:00;10.67;;;6.63;;
7773;SDS011;3931;42.260;23.116;2022-10-16T04:38:27;13.70;;;7.83;;
7773;SDS011;3931;42.260;23.116;2022-10-16T04:40:54;12.43;;;8.23;;
7773;SDS011;3931;42.260;23.116;2022-10-16T04:43:20;9.67;;;7.07;;
7773;SDS011;3931;42.260;23.116;2022-10-16T04:45:47;12.83;;;7.80;;
7773;SDS011;3931;42.260;23.116;2022-10-16T04:48:15;9.30;;;6.40;;
7773;SDS011;3931;42.260;23.116;2022-10-16T04:50:42;24.17;;;7.30;;
7773;SDS011;3931;42.260;23.116;2022-10-16T04:53:08;14.30;;;6.67;;
7773;SDS011;3931;42.260;23.116;2022-10-16T04:55:34;11.40;;;6.47;;
7773;SDS011;3931;42.260;23.116;2022-10-16T04:58:01;11.07;;;6.63;;
7773;SDS011;3931;42.260;23.116;2022-10-16T05:00:27;8.00;;;6.30;;
7773;SDS011;3931;42.260;23.116;2022-10-16T05:02:53;13.97;;;7.10;;
7773;SDS011;3931;42.260;23.116;2022-10-16T05:05:19;11.37;;;6.03;;
7773;SDS011;3931;42.260;23.116;2022-10-16T05:07:46;17.67;;;8.43;;
7773;SDS011;3931;42.260;23.116;2022-10-16T05:10:12;14.63;;;8.37;;
7773;SDS011;3931;42.260;23.116;2022-10-16T05:12:38;15.30;;;9.67;;
7773;SDS011;3931;42.260;23.116;2022-10-16T05:15:05;10.00;;;8.30;;
7773;SDS011;3931;42.260;23.116;2022-10-16T05:17:31;17.03;;;10.33;;
7773;SDS011;3931;42.260;23.116;2022-10-16T05:20:00;16.33;;;10.37;;
7773;SDS011;3931;42.260;23.116;2022-10-16T05:22:27;16.17;;;9.13;;
7773;SDS011;3931;42.260;23.116;2022-10-16T05:24:53;12.10;;;7.60;;
7773;SDS011;3931;42.260;23.116;2022-10-16T05:27:19;23.27;;;10.23;;
7773;SDS011;3931;42.260;23.116;2022-10-16T05:29:46;29.30;;;17.90;;
7773;SDS011;3931;42.260;23.116;2022-10-16T05:32:13;38.97;;;18.53;;
7773;SDS011;3931;42.260;23.116;2022-10-16T05:34:39;18.50;;;11.83;;
7773;SDS011;3931;42.260;23.116;2022-10-16T05:37:05;17.00;;;11.87;;
7773;SDS011;3931;42.260;23.116;2022-10-16T05:39:31;20.53;;;12.13;;
7773;SDS011;3931;42.260;23.116;2022-10-16T05:41:58;17.70;;;10.40;;
7773;SDS011;3931;42.260;23.116;2022-10-16T05:44:24;27.27;;;12.50;;
7773;SDS011;3931;42.260;23.116;2022-10-16T05:46:51;16.63;;;10.70;;
7773;SDS011;3931;42.260;23.116;2022-10-16T05:49:17;24.50;;;15.47;;
7773;SDS011;3931;42.260;23.116;2022-10-16T05:51:43;21.07;;;13.83;;
7773;SDS011;3931;42.260;23.116;2022-10-16T05:54:09;21.23;;;11.87;;
7773;SDS011;3931;42.260;23.116;2022-10-16T05:56:35;17.80;;;10.30;;
7773;SDS011;3931;42.260;23.116;2022-10-16T05:59:03;23.50;;;12.57;;
7773;SDS011;3931;42.260;23.116;2022-10-16T06:01:29;17.40;;;12.67;;
7773;SDS011;3931;42.260;23.116;2022-10-16T06:03:56;17.00;;;10.63;;
7773;SDS011;3931;42.260;23.116;2022-10-16T06:06:22;13.37;;;9.80;;
7773;SDS011;3931;42.260;23.116;2022-10-16T06:08:51;11.03;;;7.20;;
7773;SDS011;3931;42.260;23.116;2022-10-16T06:11:18;10.90;;;6.93;;
7773;SDS011;3931;42.260;23.116;2022-10-16T06:13:48;12.00;;;7.07;;
7773;SDS011;3931;42.260;23.116;2022-10-16T06:16:16;11.80;;;6.80;;
7773;SDS011;3931;42.260;23.116;2022-10-16T06:18:42;8.40;;;6.80;;
7773;SDS011;3931;42.260;23.116;2022-10-16T06:21:08;14.23;;;7.23;;
7773;SDS011;3931;42.260;23.116;2022-10-16T06:23:36;13.60;;;7.90;;
7773;SDS011;3931;42.260;23.116;2022-10-16T06:26:06;14.30;;;7.27;;
7773;SDS011;3931;42.260;23.116;2022-10-16T06:28:33;11.37;;;7.43;;
7773;SDS011;3931;42.260;23.116;2022-10-16T06:30:59;8.87;;;6.80;;
7773;SDS011;3931;42.260;23.116;2022-10-16T06:33:26;11.93;;;7.40;;
7773;SDS011;3931;42.260;23.116;2022-10-16T06:35:52;18.40;;;7.37;;
7773;SDS011;3931;42.260;23.116;2022-10-16T06:38:18;13.50;;;6.37;;
7773;SDS011;3931;42.260;23.116;2022-10-16T06:40:44;7.70;;;5.97;;
7773;SDS011;3931;42.260;23.116;2022-10-16T06:43:10;14.90;;;7.03;;
7773;SDS011;3931;42.260;23.116;2022-10-16T06:45:36;11.27;;;6.83;;
7773;SDS011;3931;42.260;23.116;2022-10-16T06:48:03;9.00;;;6.40;;
7773;SDS011;3931;42.260;23.116;2022-10-16T06:50:29;14.40;;;7.47;;
7773;SDS011;3931;42.260;23.116;2022-10-16T06:52:55;9.93;;;5.87;;
7773;SDS011;3931;42.260;23.116;2022-10-16T06:55:21;9.20;;;6.00;;
7773;SDS011;3931;42.260;23.116;2022-10-16T06:57:48;8.40;;;5.63;;
7773;SDS011;3931;42.260;23.116;2022-10-16T07:00:14;13.03;;;7.07;;
7773;SDS011;3931;42.260;23.116;2022-10-16T07:02:40;10.20;;;6.63;;
7773;SDS011;3931;42.260;23.116;2022-10-16T07:05:06;12.80;;;6.70;;
7773;SDS011;3931;42.260;23.116;2022-10-16T07:07:33;18.83;;;7.80;;
7773;SDS011;3931;42.260;23.116;2022-10-16T07:09:59;11.30;;;7.33;;
7773;SDS011;3931;42.260;23.116;2022-10-16T07:12:25;13.80;;;6.47;;
7773;SDS011;3931;42.260;23.116;2022-10-16T07:14:51;23.63;;;6.90;;
7773;SDS011;3931;42.260;23.116;2022-10-16T07:17:19;127.03;;;20.63;;
7773;SDS011;3931;42.260;23.116;2022-10-16T07:19:45;9.90;;;7.27;;
7773;SDS011;3931;42.260;23.116;2022-10-16T07:22:11;33.80;;;12.00;;
7773;SDS011;3931;42.260;23.116;2022-10-16T07:24:38;83.57;;;16.83;;
7773;SDS011;3931;42.260;23.116;2022-10-16T07:27:04;20.03;;;6.77;;
7773;SDS011;3931;42.260;23.116;2022-10-16T07:29:30;8.97;;;5.93;;
7773;SDS011;3931;42.260;23.116;2022-10-16T07:31:56;15.67;;;6.00;;
7773;SDS011;3931;42.260;23.116;2022-10-16T07:34:22;21.73;;;11.10;;
7773;SDS011;3931;42.260;23.116;2022-10-16T07:36:48;31.37;;;10.13;;
7773;SDS011;3931;42.260;23.116;2022-10-16T07:39:15;12.83;;;7.93;;
7773;SDS011;3931;42.260;23.116;2022-10-16T07:41:42;11.60;;;7.80;;
7773;SDS011;3931;42.260;23.116;2022-10-16T07:44:08;19.33;;;8.63;;
7773;SDS011;3931;42.260;23.116;2022-10-16T07:46:34;28.07;;;7.77;;
7773;SDS011;3931;42.260;23.116;2022-10-16T07:49:01;11.17;;;7.10;;
7773;SDS011;3931;42.260;23.116;2022-10-16T07:51:27;12.73;;;6.80;;
7773;SDS011;3931;42.260;23.116;2022-10-16T07:53:54;17.37;;;7.47;;
7773;SDS011;3931;42.260;23.116;2022-10-16T07:56:20;16.63;;;7.83;;
7773;SDS011;3931;42.260;23.116;2022-10-16T07:58:48;13.13;;;7.80;;
7773;SDS011;3931;42.260;23.116;2022-10-16T08:01:15;10.60;;;7.70;;
7773;SDS011;3931;42.260;23.116;2022-10-16T08:03:43;14.30;;;6.60;;
7773;SDS011;3931;42.260;23.116;2022-10-16T08:06:10;13.93;;;7.20;;
7773;SDS011;3931;42.260;23.116;2022-10-16T08:08:36;14.23;;;7.70;;
7773;SDS011;3931;42.260;23.116;2022-10-16T08:11:02;15.53;;;6.90;;
7773;SDS011;3931;42.260;23.116;2022-10-16T08:13:29;10.87;;;6.77;;
7773;SDS011;3931;42.260;23.116;2022-10-16T08:15:55;14.00;;;6.80;;
7773;SDS011;3931;42.260;23.116;2022-10-16T08:18:22;15.53;;;7.83;;
7773;SDS011;3931;42.260;23.116;2022-10-16T08:20:54;16.77;;;7.10;;
7773;SDS011;3931;42.260;23.116;2022-10-16T08:23:21;11.47;;;8.57;;
7773;SDS011;3931;42.260;23.116;2022-10-16T08:25:47;19.03;;;8.37;;
7773;SDS011;3931;42.260;23.116;2022-10-16T08:28:13;16.00;;;8.00;;
7773;SDS011;3931;42.260;23.116;2022-10-16T08:30:40;17.70;;;11.63;;
7773;SDS011;3931;42.260;23.116;2022-10-16T08:33:07;12.60;;;8.53;;
7773;SDS011;3931;42.260;23.116;2022-10-16T08:35:33;12.73;;;8.40;;
7773;SDS011;3931;42.260;23.116;2022-10-16T08:37:59;13.50;;;7.17;;
7773;SDS011;3931;42.260;23.116;2022-10-16T08:40:26;10.87;;;6.97;;
7773;SDS011;3931;42.260;23.116;2022-10-16T08:43:04;15.83;;;8.90;;
7773;SDS011;3931;42.260;23.116;2022-10-16T08:45:47;16.03;;;7.23;;
7773;SDS011;3931;42.260;23.116;2022-10-16T08:48:30;24.93;;;9.10;;
7773;SDS011;3931;42.260;23.116;2022-10-16T08:51:03;13.90;;;8.73;;
7773;SDS011;3931;42.260;23.116;2022-10-16T08:53:31;12.33;;;7.17;;
7773;SDS011;3931;42.260;23.116;2022-10-16T08:56:06;23.03;;;7.60;;
7773;SDS011;3931;42.260;23.116;2022-10-16T08:58:32;14.03;;;6.43;;
7773;SDS011;3931;42.260;23.116;2022-10-16T09:00:59;16.30;;;6.43;;
7773;SDS011;3931;42.260;23.116;2022-10-16T09:03:32;12.10;;;5.90;;
7773;SDS011;3931;42.260;23.116;2022-10-16T09:09:08;9.13;;;6.17;;
7773;SDS011;3931;42.260;23.116;2022-10-16T09:11:52;9.20;;;5.83;;
7773;SDS011;3931;42.260;23.116;2022-10-16T09:14:35;11.33;;;6.17;;
7773;SDS011;3931;42.260;23.116;2022-10-16T09:17:17;19.30;;;6.70;;
7773;SDS011;3931;42.260;23.116;2022-10-16T09:19:55;9.57;;;6.30;;
7773;SDS011;3931;42.260;23.116;2022-10-16T09:22:39;9.07;;;6.30;;
7773;SDS011;3931;42.260;23.116;2022-10-16T09:25:10;12.60;;;5.63;;
7773;SDS011;3931;42.260;23.116;2022-10-16T09:27:37;9.07;;;5.73;;
7773;SDS011;3931;42.260;23.116;2022-10-16T09:30:09;9.80;;;5.90;;
7773;SDS011;3931;42.260;23.116;2022-10-16T09:32:37;12.30;;;6.80;;
7773;SDS011;3931;42.260;23.116;2022-10-16T09:35:09;10.30;;;7.03;;
7773;SDS011;3931;42.260;23.116;2022-10-16T09:37:39;18.42;;;8.65;;
7773;SDS011;3931;42.260;23.116;2022-10-16T09:40:07;10.63;;;5.97;;
7773;SDS011;3931;42.260;23.116;2022-10-16T09:42:38;12.97;;;6.50;;
7773;SDS011;3931;42.260;23.116;2022-10-16T09:45:05;5.10;;;4.60;;
7773;SDS011;3931;42.260;23.116;2022-10-16T09:47:45;6.63;;;5.10;;
7773;SDS011;3931;42.260;23.116;2022-10-16T09:50:20;6.77;;;4.87;;
7773;SDS011;3931;42.260;23.116;2022-10-16T09:52:48;7.20;;;5.07;;
7773;SDS011;3931;42.260;23.116;2022-10-16T09:55:15;9.47;;;5.10;;
7773;SDS011;3931;42.260;23.116;2022-10-16T09:57:48;11.27;;;6.10;;
7773;SDS011;3931;42.260;23.116;2022-10-16T10:00:15;13.57;;;5.60;;
7773;SDS011;3931;42.260;23.116;2022-10-16T10:02:42;8.40;;;5.63;;
7773;SDS011;3931;42.260;23.116;2022-10-16T10:05:17;5.50;;;4.80;;
7773;SDS011;3931;42.260;23.116;2022-10-16T10:07:52;10.10;;;6.60;;
7773;SDS011;3931;42.260;23.116;2022-10-16T10:10:21;16.37;;;8.00;;
7773;SDS011;3931;42.260;23.116;2022-10-16T10:12:49;7.43;;;5.40;;
7773;SDS011;3931;42.260;23.116;2022-10-16T10:15:15;10.93;;;8.30;;
7773;SDS011;3931;42.260;23.116;2022-10-16T10:17:45;7.77;;;5.77;;
7773;SDS011;3931;42.260;23.116;2022-10-16T10:20:18;5.77;;;4.93;;
7773;SDS011;3931;42.260;23.116;2022-10-16T10:22:49;11.00;;;6.80;;
7773;SDS011;3931;42.260;23.116;2022-10-16T10:25:18;10.40;;;6.90;;
7773;SDS011;3931;42.260;23.116;2022-10-16T10:27:59;10.97;;;5.07;;
7773;SDS011;3931;42.260;23.116;2022-10-16T10:30:41;6.60;;;4.90;;
7773;SDS011;3931;42.260;23.116;2022-10-16T10:33:17;6.70;;;4.40;;
7773;SDS011;3931;42.260;23.116;2022-10-16T10:35:52;9.53;;;6.70;;
7773;SDS011;3931;42.260;23.116;2022-10-16T10:38:29;17.33;;;6.10;;
7773;SDS011;3931;42.260;23.116;2022-10-16T10:41:04;6.30;;;4.17;;
7773;SDS011;3931;42.260;23.116;2022-10-16T10:43:44;12.73;;;8.83;;
7773;SDS011;3931;42.260;23.116;2022-10-16T10:46:23;9.53;;;5.30;;
7773;SDS011;3931;42.260;23.116;2022-10-16T10:49:01;7.60;;;5.20;;
7773;SDS011;3931;42.260;23.116;2022-10-16T10:51:48;7.70;;;5.80;;
7773;SDS011;3931;42.260;23.116;2022-10-16T10:54:25;10.03;;;5.27;;
7773;SDS011;3931;42.260;23.116;2022-10-16T10:57:00;10.70;;;4.57;;
7773;SDS011;3931;42.260;23.116;2022-10-16T10:59:37;10.33;;;4.40;;
7773;SDS011;3931;42.260;23.116;2022-10-16T11:02:21;7.23;;;4.57;;
7773;SDS011;3931;42.260;23.116;2022-10-16T11:07:50;13.27;;;6.40;;
7773;SDS011;3931;42.260;23.116;2022-10-16T11:10:21;12.73;;;8.50;;
7773;SDS011;3931;42.260;23.116;2022-10-16T11:12:52;7.20;;;4.77;;
7773;SDS011;3931;42.260;23.116;2022-10-16T11:15:25;8.70;;;5.20;;
7773;SDS011;3931;42.260;23.116;2022-10-16T11:17:55;6.03;;;3.90;;
7773;SDS011;3931;42.260;23.116;2022-10-16T11:20:29;7.70;;;5.37;;
7773;SDS011;3931;42.260;23.116;2022-10-16T11:23:00;10.77;;;5.70;;
7773;SDS011;3931;42.260;23.116;2022-10-16T11:25:33;10.80;;;5.33;;
7773;SDS011;3931;42.260;23.116;2022-10-16T11:28:01;9.50;;;4.93;;
7773;SDS011;3931;42.260;23.116;2022-10-16T11:30:33;9.13;;;4.80;;
7773;SDS011;3931;42.260;23.116;2022-10-16T11:33:10;8.97;;;4.97;;
7773;SDS011;3931;42.260;23.116;2022-10-16T11:35:50;8.37;;;4.13;;
7773;SDS011;3931;42.260;23.116;2022-10-16T11:38:25;7.67;;;4.93;;
7773;SDS011;3931;42.260;23.116;2022-10-16T11:40:55;6.13;;;4.70;;
7773;SDS011;3931;42.260;23.116;2022-10-16T11:43:27;9.97;;;6.10;;
7773;SDS011;3931;42.260;23.116;2022-10-16T11:45:58;7.60;;;4.20;;
7773;SDS011;3931;42.260;23.116;2022-10-16T11:48:35;13.10;;;4.90;;
7773;SDS011;3931;42.260;23.116;2022-10-16T11:51:08;5.60;;;4.37;;
7773;SDS011;3931;42.260;23.116;2022-10-16T11:53:44;12.07;;;4.67;;
7773;SDS011;3931;42.260;23.116;2022-10-16T11:56:16;5.70;;;3.63;;
7773;SDS011;3931;42.260;23.116;2022-10-16T11:58:49;6.90;;;4.30;;
7773;SDS011;3931;42.260;23.116;2022-10-16T12:01:22;19.40;;;7.77;;
7773;SDS011;3931;42.260;23.116;2022-10-16T12:03:56;15.73;;;5.43;;
7773;SDS011;3931;42.260;23.116;2022-10-16T12:06:43;9.60;;;4.60;;
7773;SDS011;3931;42.260;23.116;2022-10-16T12:09:15;6.97;;;3.73;;
7773;SDS011;3931;42.260;23.116;2022-10-16T12:11:47;6.50;;;4.00;;
7773;SDS011;3931;42.260;23.116;2022-10-16T12:17:03;19.10;;;6.67;;
7773;SDS011;3931;42.260;23.116;2022-10-16T12:19:56;5.23;;;3.53;;
7773;SDS011;3931;42.260;23.116;2022-10-16T12:22:23;6.03;;;4.13;;
7773;SDS011;3931;42.260;23.116;2022-10-16T12:24:54;14.10;;;6.20;;
7773;SDS011;3931;42.260;23.116;2022-10-16T12:27:22;5.37;;;4.07;;
7773;SDS011;3931;42.260;23.116;2022-10-16T12:29:54;7.77;;;5.30;;
7773;SDS011;3931;42.260;23.116;2022-10-16T12:32:23;7.43;;;4.20;;
7773;SDS011;3931;42.260;23.116;2022-10-16T12:34:55;8.53;;;3.30;;
7773;SDS011;3931;42.260;23.116;2022-10-16T12:37:22;9.70;;;4.00;;
7773;SDS011;3931;42.260;23.116;2022-10-16T12:39:51;4.23;;;3.10;;
7773;SDS011;3931;42.260;23.116;2022-10-16T12:42:22;5.87;;;4.17;;
7773;SDS011;3931;42.260;23.116;2022-10-16T12:44:56;5.77;;;3.53;;
7773;SDS011;3931;42.260;23.116;2022-10-16T12:47:23;5.90;;;3.30;;
7773;SDS011;3931;42.260;23.116;2022-10-16T12:50:00;7.87;;;4.20;;
7773;SDS011;3931;42.260;23.116;2022-10-16T12:52:27;5.40;;;3.87;;
7773;SDS011;3931;42.260;23.116;2022-10-16T12:55:00;8.37;;;3.07;;
7773;SDS011;3931;42.260;23.116;2022-10-16T12:57:31;5.40;;;2.50;;
7773;SDS011;3931;42.260;23.116;2022-10-16T13:00:10;5.90;;;2.80;;
7773;SDS011;3931;42.260;23.116;2022-10-16T13:02:48;3.20;;;2.63;;
7773;SDS011;3931;42.260;23.116;2022-10-16T13:05:33;7.33;;;3.53;;
7773;SDS011;3931;42.260;23.116;2022-10-16T13:08:19;7.40;;;3.07;;
7773;SDS011;3931;42.260;23.116;2022-10-16T13:11:00;4.47;;;2.57;;
7773;SDS011;3931;42.260;23.116;2022-10-16T13:13:40;7.20;;;4.23;;
7773;SDS011;3931;42.260;23.116;2022-10-16T13:16:22;3.80;;;2.77;;
7773;SDS011;3931;42.260;23.116;2022-10-16T13:18:58;8.80;;;4.57;;
7773;SDS011;3931;42.260;23.116;2022-10-16T13:21:38;5.33;;;3.23;;
7773;SDS011;3931;42.260;23.116;2022-10-16T13:24:15;5.67;;;3.07;;
7773;SDS011;3931;42.260;23.116;2022-10-16T13:26:50;11.57;;;3.50;;
7773;SDS011;3931;42.260;23.116;2022-10-16T13:29:23;4.60;;;3.50;;
7773;SDS011;3931;42.260;23.116;2022-10-16T13:31:49;7.70;;;5.00;;
7773;SDS011;3931;42.260;23.116;2022-10-16T13:34:16;8.33;;;3.83;;
7773;SDS011;3931;42.260;23.116;2022-10-16T13:36:45;5.47;;;4.20;;
7773;SDS011;3931;42.260;23.116;2022-10-16T13:39:19;5.23;;;3.90;;
7773;SDS011;3931;42.260;23.116;2022-10-16T13:41:57;6.47;;;4.13;;
7773;SDS011;3931;42.260;23.116;2022-10-16T13:44:27;7.53;;;4.57;;
7773;SDS011;3931;42.260;23.116;2022-10-16T13:47:00;6.30;;;3.80;;
7773;SDS011;3931;42.260;23.116;2022-10-16T13:49:27;6.50;;;4.47;;
7773;SDS011;3931;42.260;23.116;2022-10-16T13:51:53;3.57;;;3.10;;
7773;SDS011;3931;42.260;23.116;2022-10-16T13:54:20;7.87;;;6.33;;
7773;SDS011;3931;42.260;23.116;2022-10-16T13:56:47;16.40;;;9.77;;
7773;SDS011;3931;42.260;23.116;2022-10-16T13:59:22;11.20;;;3.50;;
7773;SDS011;3931;42.260;23.116;2022-10-16T14:01:51;4.70;;;4.00;;
7773;SDS011;3931;42.260;23.116;2022-10-16T14:04:19;12.20;;;9.17;;
7773;SDS011;3931;42.260;23.116;2022-10-16T14:06:48;6.83;;;4.43;;
7773;SDS011;3931;42.260;23.116;2022-10-16T14:09:17;4.73;;;2.77;;
7773;SDS011;3931;42.260;23.116;2022-10-16T14:11:48;7.70;;;3.87;;
7773;SDS011;3931;42.260;23.116;2022-10-16T14:14:16;9.50;;;4.13;;
7773;SDS011;3931;42.260;23.116;2022-10-16T14:16:43;13.57;;;8.83;;
7773;SDS011;3931;42.260;23.116;2022-10-16T14:19:14;19.00;;;13.13;;
7773;SDS011;3931;42.260;23.116;2022-10-16T14:21:46;9.00;;;5.83;;
7773;SDS011;3931;42.260;23.116;2022-10-16T14:24:12;6.13;;;4.40;;
7773;SDS011;3931;42.260;23.116;2022-10-16T14:26:40;5.10;;;3.50;;
7773;SDS011;3931;42.260;23.116;2022-10-16T14:29:11;18.90;;;13.70;;
7773;SDS011;3931;42.260;23.116;2022-10-16T14:31:39;4.37;;;2.87;;
7773;SDS011;3931;42.260;23.116;2022-10-16T14:36:55;4.10;;;3.10;;
7773;SDS011;3931;42.260;23.116;2022-10-16T14:39:22;9.00;;;3.77;;
7773;SDS011;3931;42.260;23.116;2022-10-16T14:41:51;8.70;;;4.13;;
7773;SDS011;3931;42.260;23.116;2022-10-16T14:44:18;4.00;;;3.23;;
7773;SDS011;3931;42.260;23.116;2022-10-16T14:46:53;9.07;;;4.33;;
7773;SDS011;3931;42.260;23.116;2022-10-16T14:49:19;5.00;;;3.00;;
7773;SDS011;3931;42.260;23.116;2022-10-16T14:51:47;7.00;;;3.30;;
7773;SDS011;3931;42.260;23.116;2022-10-16T14:54:14;4.90;;;3.17;;
7773;SDS011;3931;42.260;23.116;2022-10-16T14:56:43;7.13;;;3.80;;
7773;SDS011;3931;42.260;23.116;2022-10-16T14:59:13;5.93;;;3.90;;
7773;SDS011;3931;42.260;23.116;2022-10-16T15:01:42;9.33;;;4.03;;
7773;SDS011;3931;42.260;23.116;2022-10-16T15:04:09;9.13;;;3.57;;
7773;SDS011;3931;42.260;23.116;2022-10-16T15:06:36;5.23;;;3.27;;
7773;SDS011;3931;42.260;23.116;2022-10-16T15:09:03;10.63;;;3.37;;
7773;SDS011;3931;42.260;23.116;2022-10-16T15:11:29;6.67;;;4.00;;
7773;SDS011;3931;42.260;23.116;2022-10-16T15:13:57;12.67;;;5.03;;
7773;SDS011;3931;42.260;23.116;2022-10-16T15:16:24;5.43;;;4.17;;
7773;SDS011;3931;42.260;23.116;2022-10-16T15:18:50;11.80;;;4.43;;
7773;SDS011;3931;42.260;23.116;2022-10-16T15:21:20;5.40;;;3.77;;